sensor_id;sensor_type;location;lat;lon;timestamp;pressure;altitude;pressure_sealevel;temperature;humidity
16461;BME280;8341;42.048;24.650;2023-05-21T00:01:54;97033.41;;;17.39;76.92
16461;BME280;8341;42.048;24.650;2023-05-21T00:04:21;97032.00;;;17.33;76.92
16461;BME280;8341;42.048;24.650;2023-05-21T00:06:49;97018.72;;;17.31;76.46
16461;BME280;8341;42.048;24.650;2023-05-21T00:09:16;97026.94;;;17.37;77.50
16461;BME280;8341;42.048;24.650;2023-05-21T00:11:43;97020.38;;;17.40;77.58
16461;BME280;8341;42.048;24.650;2023-05-21T00:14:10;97018.13;;;17.38;77.54
16461;BME280;8341;42.048;24.650;2023-05-21T00:16:36;97020.38;;;17.40;78.17
16461;BME280;8341;42.048;24.650;2023-05-21T00:19:04;97013.88;;;17.37;77.66
16461;BME280;8341;42.048;24.650;2023-05-21T00:21:32;97015.91;;;17.37;77.74
16461;BME280;8341;42.048;24.650;2023-05-21T00:23:59;97016.88;;;17.39;77.31
16461;BME280;8341;42.048;24.650;2023-05-21T00:26:26;97013.22;;;17.31;78.70
16461;BME280;8341;42.048;24.650;2023-05-21T00:28:52;97014.72;;;17.32;77.80
16461;BME280;8341;42.048;24.650;2023-05-21T00:31:19;97015.69;;;17.35;78.62
16461;BME280;8341;42.048;24.650;2023-05-21T00:33:46;97012.47;;;17.31;78.75
16461;BME280;8341;42.048;24.650;2023-05-21T00:36:14;97017.25;;;17.30;78.61
16461;BME280;8341;42.048;24.650;2023-05-21T00:38:41;97011.59;;;17.23;78.79
16461;BME280;8341;42.048;24.650;2023-05-21T00:41:10;97008.03;;;17.28;78.21
16461;BME280;8341;42.048;24.650;2023-05-21T00:43:37;97009.28;;;17.27;78.12
16461;BME280;8341;42.048;24.650;2023-05-21T00:46:06;96999.22;;;17.29;77.83
16461;BME280;8341;42.048;24.650;2023-05-21T00:48:33;96999.97;;;17.30;77.59
16461;BME280;8341;42.048;24.650;2023-05-21T00:51:00;96997.44;;;17.32;77.44
16461;BME280;8341;42.048;24.650;2023-05-21T00:53:29;96992.97;;;17.29;77.29
16461;BME280;8341;42.048;24.650;2023-05-21T00:55:56;96992.53;;;17.25;77.94
16461;BME280;8341;42.048;24.650;2023-05-21T00:58:23;96996.25;;;17.27;77.78
16461;BME280;8341;42.048;24.650;2023-05-21T01:00:50;96987.66;;;17.31;77.71
16461;BME280;8341;42.048;24.650;2023-05-21T01:03:21;96987.66;;;17.31;78.29
16461;BME280;8341;42.048;24.650;2023-05-21T01:05:49;96984.47;;;17.27;78.51
16461;BME280;8341;42.048;24.650;2023-05-21T01:08:17;96986.56;;;17.21;78.34
16461;BME280;8341;42.048;24.650;2023-05-21T01:10:47;96981.78;;;17.21;78.33
16461;BME280;8341;42.048;24.650;2023-05-21T01:13:15;96981.78;;;17.21;77.72
16461;BME280;8341;42.048;24.650;2023-05-21T01:15:43;96988.06;;;17.22;78.26
16461;BME280;8341;42.048;24.650;2023-05-21T01:18:10;96983.59;;;17.19;77.93
16461;BME280;8341;42.048;24.650;2023-05-21T01:20:38;96986.88;;;17.17;78.20
16461;BME280;8341;42.048;24.650;2023-05-21T01:23:08;96985.84;;;17.20;77.96
16461;BME280;8341;42.048;24.650;2023-05-21T01:25:34;96982.09;;;17.18;76.85
16461;BME280;8341;42.048;24.650;2023-05-21T01:28:01;96985.31;;;17.22;77.30
16461;BME280;8341;42.048;24.650;2023-05-21T01:30:28;96982.75;;;17.24;77.18
16461;BME280;8341;42.048;24.650;2023-05-21T01:32:59;96984.75;;;17.23;77.50
16461;BME280;8341;42.048;24.650;2023-05-21T01:35:31;96980.63;;;17.17;76.55
16461;BME280;8341;42.048;24.650;2023-05-21T01:38:04;96982.09;;;17.18;76.34
16461;BME280;8341;42.048;24.650;2023-05-21T01:40:39;96982.09;;;17.18;76.79
16461;BME280;8341;42.048;24.650;2023-05-21T01:43:08;96980.69;;;17.11;75.60
16461;BME280;8341;42.048;24.650;2023-05-21T01:45:39;96981.56;;;17.01;76.70
16461;BME280;8341;42.048;24.650;2023-05-21T01:48:06;96978.53;;;17.04;76.15
16461;BME280;8341;42.048;24.650;2023-05-21T01:50:34;96971.84;;;17.00;76.74
16461;BME280;8341;42.048;24.650;2023-05-21T01:53:01;96972.72;;;17.08;76.85
16461;BME280;8341;42.048;24.650;2023-05-21T01:55:30;96977.19;;;17.11;76.07
16461;BME280;8341;42.048;24.650;2023-05-21T01:57:59;96959.59;;;17.14;75.54
16461;BME280;8341;42.048;24.650;2023-05-21T02:00:26;96969.59;;;17.17;75.09
16461;BME280;8341;42.048;24.650;2023-05-21T02:02:53;96969.59;;;17.17;75.54
16461;BME280;8341;42.048;24.650;2023-05-21T02:05:20;96965.72;;;17.07;75.71
16461;BME280;8341;42.048;24.650;2023-05-21T02:07:48;96958.72;;;17.06;76.95
16461;BME280;8341;42.048;24.650;2023-05-21T02:10:16;96945.75;;;17.01;77.62
16461;BME280;8341;42.048;24.650;2023-05-21T02:12:43;96956.63;;;17.12;76.67
16461;BME280;8341;42.048;24.650;2023-05-21T02:15:11;96964.00;;;17.04;77.21
16461;BME280;8341;42.048;24.650;2023-05-21T02:17:42;96957.38;;;16.94;76.64
16461;BME280;8341;42.048;24.650;2023-05-21T02:20:09;96958.50;;;17.04;77.27
16461;BME280;8341;42.048;24.650;2023-05-21T02:22:37;96947.69;;;17.06;76.65
16461;BME280;8341;42.048;24.650;2023-05-21T02:25:05;96958.72;;;17.06;77.30
16461;BME280;8341;42.048;24.650;2023-05-21T02:27:33;96947.19;;;17.07;78.00
16461;BME280;8341;42.048;24.650;2023-05-21T02:30:01;96955.75;;;17.04;77.41
16461;BME280;8341;42.048;24.650;2023-05-21T02:32:29;96959.59;;;16.95;76.72
16461;BME280;8341;42.048;24.650;2023-05-21T02:34:57;96956.63;;;16.93;76.62
16461;BME280;8341;42.048;24.650;2023-05-21T02:37:24;96950.63;;;16.95;76.98
16461;BME280;8341;42.048;24.650;2023-05-21T02:39:52;96947.56;;;16.98;76.74
16461;BME280;8341;42.048;24.650;2023-05-21T02:42:18;96948.00;;;16.83;76.92
16461;BME280;8341;42.048;24.650;2023-05-21T02:44:45;96941.00;;;16.82;76.98
16461;BME280;8341;42.048;24.650;2023-05-21T02:47:12;96946.81;;;16.79;77.59
16461;BME280;8341;42.048;24.650;2023-05-21T02:49:40;96953.03;;;16.79;77.76
16461;BME280;8341;42.048;24.650;2023-05-21T02:52:07;96949.03;;;16.62;79.25
16461;BME280;8341;42.048;24.650;2023-05-21T02:54:34;96950.69;;;16.70;78.56
16461;BME280;8341;42.048;24.650;2023-05-21T02:57:00;96955.38;;;16.75;78.82
16461;BME280;8341;42.048;24.650;2023-05-21T02:59:27;96948.81;;;16.78;77.34
16461;BME280;8341;42.048;24.650;2023-05-21T03:01:54;96947.53;;;16.79;77.41
16461;BME280;8341;42.048;24.650;2023-05-21T03:04:21;96948.34;;;16.74;78.73
16461;BME280;8341;42.048;24.650;2023-05-21T03:06:49;96950.06;;;16.77;77.83
16461;BME280;8341;42.048;24.650;2023-05-21T03:09:19;96946.75;;;16.84;78.53
16461;BME280;8341;42.048;24.650;2023-05-21T03:11:46;96943.69;;;16.88;78.57
16461;BME280;8341;42.048;24.650;2023-05-21T03:14:13;96949.72;;;16.86;78.32
16461;BME280;8341;42.048;24.650;2023-05-21T03:16:40;96949.72;;;16.86;77.73
16461;BME280;8341;42.048;24.650;2023-05-21T03:19:08;96950.16;;;16.90;78.27
16461;BME280;8341;42.048;24.650;2023-05-21T03:21:35;96955.66;;;16.90;79.56
16461;BME280;8341;42.048;24.650;2023-05-21T03:24:04;96953.81;;;16.80;81.71
16461;BME280;8341;42.048;24.650;2023-05-21T03:26:31;96950.81;;;16.78;80.12
16461;BME280;8341;42.048;24.650;2023-05-21T03:28:58;96958.72;;;16.87;79.83
16461;BME280;8341;42.048;24.650;2023-05-21T03:31:26;96961.19;;;16.90;79.73
16461;BME280;8341;42.048;24.650;2023-05-21T03:33:52;96957.91;;;16.92;79.71
16461;BME280;8341;42.048;24.650;2023-05-21T03:36:19;96961.19;;;16.90;79.15
16461;BME280;8341;42.048;24.650;2023-05-21T03:38:46;96966.41;;;16.94;78.13
16461;BME280;8341;42.048;24.650;2023-05-21T03:41:14;96957.81;;;16.98;79.32
16461;BME280;8341;42.048;24.650;2023-05-21T03:43:41;96961.53;;;17.00;81.07
16461;BME280;8341;42.048;24.650;2023-05-21T03:46:08;96960.06;;;16.99;79.06
16461;BME280;8341;42.048;24.650;2023-05-21T03:48:34;96959.03;;;17.02;77.36
16461;BME280;8341;42.048;24.650;2023-05-21T03:51:01;96960.72;;;17.05;77.24
16461;BME280;8341;42.048;24.650;2023-05-21T03:53:28;96960.22;;;17.07;76.60
16461;BME280;8341;42.048;24.650;2023-05-21T03:55:55;96966.69;;;17.09;76.17
16461;BME280;8341;42.048;24.650;2023-05-21T03:58:23;96957.16;;;17.10;75.61
16461;BME280;8341;42.048;24.650;2023-05-21T04:00:51;96959.59;;;17.14;75.40
16461;BME280;8341;42.048;24.650;2023-05-21T04:03:17;96963.03;;;17.20;75.42
16461;BME280;8341;42.048;24.650;2023-05-21T04:05:44;96964.97;;;17.25;75.66
16461;BME280;8341;42.048;24.650;2023-05-21T04:08:11;96963.19;;;17.27;77.62
16461;BME280;8341;42.048;24.650;2023-05-21T04:10:38;96961.16;;;17.28;77.22
16461;BME280;8341;42.048;24.650;2023-05-21T04:13:04;96966.91;;;17.30;76.47
16461;BME280;8341;42.048;24.650;2023-05-21T04:15:32;96957.34;;;17.31;76.51
16461;BME280;8341;42.048;24.650;2023-05-21T04:17:59;96955.13;;;17.29;75.91
16461;BME280;8341;42.048;24.650;2023-05-21T04:20:26;96960.94;;;17.26;76.42
16461;BME280;8341;42.048;24.650;2023-05-21T04:22:53;96957.53;;;17.20;76.39
16461;BME280;8341;42.048;24.650;2023-05-21T04:25:20;96956.84;;;17.14;74.71
16461;BME280;8341;42.048;24.650;2023-05-21T04:27:48;96963.25;;;17.22;75.33
16461;BME280;8341;42.048;24.650;2023-05-21T04:30:14;96958.63;;;17.30;75.52
16461;BME280;8341;42.048;24.650;2023-05-21T04:32:43;96954.00;;;17.38;74.03
16461;BME280;8341;42.048;24.650;2023-05-21T04:35:12;96955.31;;;17.50;74.88
16461;BME280;8341;42.048;24.650;2023-05-21T04:37:39;96955.75;;;17.54;74.04
16461;BME280;8341;42.048;24.650;2023-05-21T04:40:07;96951.34;;;17.64;77.60
16461;BME280;8341;42.048;24.650;2023-05-21T04:42:34;96952.00;;;17.70;76.26
16461;BME280;8341;42.048;24.650;2023-05-21T04:45:01;96952.47;;;17.74;74.47
16461;BME280;8341;42.048;24.650;2023-05-21T04:47:28;96946.63;;;17.78;75.49
16461;BME280;8341;42.048;24.650;2023-05-21T04:50:01;96951.16;;;17.75;75.93
16461;BME280;8341;42.048;24.650;2023-05-21T04:52:28;96955.44;;;17.76;73.12
16461;BME280;8341;42.048;24.650;2023-05-21T04:54:56;96945.03;;;17.82;73.89
16461;BME280;8341;42.048;24.650;2023-05-21T04:57:22;96957.13;;;17.92;75.83
16461;BME280;8341;42.048;24.650;2023-05-21T04:59:51;96964.16;;;17.93;74.37
16461;BME280;8341;42.048;24.650;2023-05-21T05:02:18;96968.41;;;17.94;74.02
16461;BME280;8341;42.048;24.650;2023-05-21T05:04:44;96953.31;;;17.95;73.60
16461;BME280;8341;42.048;24.650;2023-05-21T05:07:12;96960.88;;;17.95;76.83
16461;BME280;8341;42.048;24.650;2023-05-21T05:09:39;96961.69;;;17.90;78.39
16461;BME280;8341;42.048;24.650;2023-05-21T05:12:06;96961.06;;;17.84;79.38
16461;BME280;8341;42.048;24.650;2023-05-21T05:14:33;96959.06;;;17.84;78.84
16461;BME280;8341;42.048;24.650;2023-05-21T05:17:00;96960.53;;;17.85;79.25
16461;BME280;8341;42.048;24.650;2023-05-21T05:19:27;96963.50;;;17.87;77.63
16461;BME280;8341;42.048;24.650;2023-05-21T05:21:54;96963.72;;;17.89;82.08
16461;BME280;8341;42.048;24.650;2023-05-21T05:24:22;96959.47;;;17.88;85.76
16461;BME280;8341;42.048;24.650;2023-05-21T05:26:49;96954.72;;;17.89;88.75
16461;BME280;8341;42.048;24.650;2023-05-21T05:29:16;96960.09;;;17.81;89.00
16461;BME280;8341;42.048;24.650;2023-05-21T05:31:43;96957.66;;;17.78;91.63
16461;BME280;8341;42.048;24.650;2023-05-21T05:34:09;96964.09;;;17.67;83.53
16461;BME280;8341;42.048;24.650;2023-05-21T05:36:36;96973.84;;;17.68;79.30
16461;BME280;8341;42.048;24.650;2023-05-21T05:39:03;96974.47;;;17.61;83.47
16461;BME280;8341;42.048;24.650;2023-05-21T05:41:31;96984.53;;;17.59;84.49
16461;BME280;8341;42.048;24.650;2023-05-21T05:43:58;96987.44;;;17.47;79.74
16461;BME280;8341;42.048;24.650;2023-05-21T05:46:25;96978.13;;;17.50;81.13
16461;BME280;8341;42.048;24.650;2023-05-21T05:48:51;96988.03;;;17.59;84.05
16461;BME280;8341;42.048;24.650;2023-05-21T05:51:18;96981.47;;;17.62;86.50
16461;BME280;8341;42.048;24.650;2023-05-21T05:53:45;96983.88;;;17.52;90.66
16461;BME280;8341;42.048;24.650;2023-05-21T05:56:12;96981.19;;;17.28;96.10
16461;BME280;8341;42.048;24.650;2023-05-21T05:58:41;96982.69;;;17.29;89.55
16461;BME280;8341;42.048;24.650;2023-05-21T06:01:08;96982.00;;;17.23;93.48
16461;BME280;8341;42.048;24.650;2023-05-21T06:03:35;96987.22;;;17.27;93.64
16461;BME280;8341;42.048;24.650;2023-05-21T06:06:02;96999.50;;;17.26;92.56
16461;BME280;8341;42.048;24.650;2023-05-21T06:08:29;96991.03;;;17.24;94.50
16461;BME280;8341;42.048;24.650;2023-05-21T06:10:55;96997.28;;;17.24;95.42
16461;BME280;8341;42.048;24.650;2023-05-21T06:13:22;97008.59;;;17.21;96.83
16461;BME280;8341;42.048;24.650;2023-05-21T06:15:51;97006.66;;;17.16;93.76
16461;BME280;8341;42.048;24.650;2023-05-21T06:18:18;97006.44;;;17.14;88.90
16461;BME280;8341;42.048;24.650;2023-05-21T06:20:45;97008.75;;;16.91;87.48
16461;BME280;8341;42.048;24.650;2023-05-21T06:23:12;97007.72;;;17.13;90.49
16461;BME280;8341;42.048;24.650;2023-05-21T06:25:38;97014.09;;;17.21;89.98
16461;BME280;8341;42.048;24.650;2023-05-21T06:28:05;97012.19;;;17.16;94.91
16461;BME280;8341;42.048;24.650;2023-05-21T06:30:32;97008.44;;;17.13;93.13
16461;BME280;8341;42.048;24.650;2023-05-21T06:33:00;97009.50;;;17.29;87.20
16461;BME280;8341;42.048;24.650;2023-05-21T06:35:27;97008.59;;;17.39;86.00
16461;BME280;8341;42.048;24.650;2023-05-21T06:37:54;97010.19;;;17.54;89.68
16461;BME280;8341;42.048;24.650;2023-05-21T06:40:20;97015.75;;;17.67;89.06
16461;BME280;8341;42.048;24.650;2023-05-21T06:42:47;97014.38;;;17.73;90.00
16461;BME280;8341;42.048;24.650;2023-05-21T06:45:14;97017.06;;;17.79;88.39
16461;BME280;8341;42.048;24.650;2023-05-21T06:47:41;97008.38;;;17.88;88.31
16461;BME280;8341;42.048;24.650;2023-05-21T06:50:09;97005.22;;;17.97;85.94
16461;BME280;8341;42.048;24.650;2023-05-21T06:52:36;96999.84;;;18.04;86.74
16461;BME280;8341;42.048;24.650;2023-05-21T06:55:03;97007.19;;;18.15;87.34
16461;BME280;8341;42.048;24.650;2023-05-21T06:57:30;97004.53;;;18.23;85.32
16461;BME280;8341;42.048;24.650;2023-05-21T06:59:57;97005.16;;;18.15;80.15
16461;BME280;8341;42.048;24.650;2023-05-21T07:02:24;97011.00;;;18.12;79.50
16461;BME280;8341;42.048;24.650;2023-05-21T07:04:51;97009.72;;;18.13;81.90
16461;BME280;8341;42.048;24.650;2023-05-21T07:07:21;97019.47;;;18.14;80.23
16461;BME280;8341;42.048;24.650;2023-05-21T07:09:48;97022.91;;;18.20;79.56
16461;BME280;8341;42.048;24.650;2023-05-21T07:12:14;97015.59;;;18.23;79.93
16461;BME280;8341;42.048;24.650;2023-05-21T07:14:41;97023.31;;;18.24;79.98
16461;BME280;8341;42.048;24.650;2023-05-21T07:17:08;97005.50;;;18.25;76.66
16461;BME280;8341;42.048;24.650;2023-05-21T07:19:35;96999.88;;;18.31;76.60
16461;BME280;8341;42.048;24.650;2023-05-21T07:22:02;96997.00;;;18.36;76.63
16461;BME280;8341;42.048;24.650;2023-05-21T07:24:30;97003.50;;;18.26;77.43
16461;BME280;8341;42.048;24.650;2023-05-21T07:26:57;97003.47;;;18.39;76.07
16461;BME280;8341;42.048;24.650;2023-05-21T07:29:24;97003.84;;;18.48;74.98
16461;BME280;8341;42.048;24.650;2023-05-21T07:31:51;97004.78;;;18.38;75.46
16461;BME280;8341;42.048;24.650;2023-05-21T07:34:17;97000.53;;;18.50;73.47
16461;BME280;8341;42.048;24.650;2023-05-21T07:36:44;97002.88;;;18.72;73.34
16461;BME280;8341;42.048;24.650;2023-05-21T07:39:11;96998.19;;;18.93;73.99
16461;BME280;8341;42.048;24.650;2023-05-21T07:41:39;97000.06;;;19.11;73.45
16461;BME280;8341;42.048;24.650;2023-05-21T07:44:06;97002.59;;;19.22;72.85
16461;BME280;8341;42.048;24.650;2023-05-21T07:46:33;97007.66;;;19.31;69.50
16461;BME280;8341;42.048;24.650;2023-05-21T07:48:59;97010.75;;;19.41;68.76
16461;BME280;8341;42.048;24.650;2023-05-21T07:51:26;97011.25;;;19.53;67.60
16461;BME280;8341;42.048;24.650;2023-05-21T07:53:53;97013.28;;;19.73;67.00
16461;BME280;8341;42.048;24.650;2023-05-21T07:56:20;97010.00;;;19.95;67.19
16461;BME280;8341;42.048;24.650;2023-05-21T07:58:48;97015.66;;;20.10;64.15
16461;BME280;8341;42.048;24.650;2023-05-21T08:01:15;97023.47;;;20.19;64.95
16461;BME280;8341;42.048;24.650;2023-05-21T08:03:42;97025.13;;;20.35;64.42
16461;BME280;8341;42.048;24.650;2023-05-21T08:06:09;97019.25;;;20.39;63.52
16461;BME280;8341;42.048;24.650;2023-05-21T08:08:35;97021.94;;;20.59;63.31
16461;BME280;8341;42.048;24.650;2023-05-21T08:11:02;97020.56;;;20.74;64.83
16461;BME280;8341;42.048;24.650;2023-05-21T08:13:29;97024.53;;;20.93;63.93
16461;BME280;8341;42.048;24.650;2023-05-21T08:15:57;97018.47;;;20.95;62.72
16461;BME280;8341;42.048;24.650;2023-05-21T08:18:24;97021.34;;;20.82;59.47
16461;BME280;8341;42.048;24.650;2023-05-21T08:20:51;97020.19;;;20.70;59.75
16461;BME280;8341;42.048;24.650;2023-05-21T08:23:18;97019.66;;;20.50;59.89
16461;BME280;8341;42.048;24.650;2023-05-21T08:25:45;97026.25;;;20.40;60.87
16461;BME280;8341;42.048;24.650;2023-05-21T08:28:12;97028.63;;;20.15;61.40
16461;BME280;8341;42.048;24.650;2023-05-21T08:30:38;97034.22;;;20.02;62.97
16461;BME280;8341;42.048;24.650;2023-05-21T08:33:07;97029.78;;;19.99;62.38
16461;BME280;8341;42.048;24.650;2023-05-21T08:35:33;97030.84;;;19.75;64.90
16461;BME280;8341;42.048;24.650;2023-05-21T08:38:00;97034.63;;;19.52;62.72
16461;BME280;8341;42.048;24.650;2023-05-21T08:40:27;97038.53;;;19.22;62.84
16461;BME280;8341;42.048;24.650;2023-05-21T08:42:55;97031.22;;;19.12;65.12
16461;BME280;8341;42.048;24.650;2023-05-21T08:45:22;97029.84;;;19.05;63.44
16461;BME280;8341;42.048;24.650;2023-05-21T08:47:54;97027.41;;;19.02;63.51
16461;BME280;8341;42.048;24.650;2023-05-21T08:50:26;97031.13;;;18.91;65.53
16461;BME280;8341;42.048;24.650;2023-05-21T08:52:53;97028.81;;;18.82;66.86
16461;BME280;8341;42.048;24.650;2023-05-21T08:55:21;97034.34;;;18.69;66.84
16461;BME280;8341;42.048;24.650;2023-05-21T08:57:47;97028.16;;;18.50;69.15
16461;BME280;8341;42.048;24.650;2023-05-21T09:00:15;97024.72;;;18.31;70.98
16461;BME280;8341;42.048;24.650;2023-05-21T09:02:42;97033.16;;;18.06;71.25
16461;BME280;8341;42.048;24.650;2023-05-21T09:05:11;97026.72;;;17.85;74.67
16461;BME280;8341;42.048;24.650;2023-05-21T09:07:45;97022.88;;;17.75;76.29
16461;BME280;8341;42.048;24.650;2023-05-21T09:10:13;97015.09;;;17.61;76.95
16461;BME280;8341;42.048;24.650;2023-05-21T09:12:40;97018.47;;;17.54;76.93
16461;BME280;8341;42.048;24.650;2023-05-21T09:15:07;97013.81;;;17.62;76.55
16461;BME280;8341;42.048;24.650;2023-05-21T09:17:34;97010.53;;;17.63;74.57
16461;BME280;8341;42.048;24.650;2023-05-21T09:20:09;97003.78;;;17.77;74.08
16461;BME280;8341;42.048;24.650;2023-05-21T09:22:40;97011.88;;;17.88;73.82
16461;BME280;8341;42.048;24.650;2023-05-21T09:25:09;97014.03;;;17.95;72.67
16461;BME280;8341;42.048;24.650;2023-05-21T09:27:36;97008.22;;;18.12;71.78
16461;BME280;8341;42.048;24.650;2023-05-21T09:30:08;97004.66;;;18.30;70.24
16461;BME280;8341;42.048;24.650;2023-05-21T09:32:35;97012.19;;;18.43;70.32
16461;BME280;8341;42.048;24.650;2023-05-21T09:35:06;97003.84;;;18.48;69.72
16461;BME280;8341;42.048;24.650;2023-05-21T09:37:36;97008.63;;;18.48;68.37
16461;BME280;8341;42.048;24.650;2023-05-21T09:40:11;97009.78;;;18.52;68.26
16461;BME280;8341;42.048;24.650;2023-05-21T09:42:39;97003.72;;;18.41;68.38
16461;BME280;8341;42.048;24.650;2023-05-21T09:45:08;97015.66;;;18.49;69.04
16461;BME280;8341;42.048;24.650;2023-05-21T09:47:39;97009.03;;;18.52;68.50
16461;BME280;8341;42.048;24.650;2023-05-21T09:50:08;97010.66;;;18.60;68.66
16461;BME280;8341;42.048;24.650;2023-05-21T09:52:35;97016.47;;;18.70;69.38
16461;BME280;8341;42.048;24.650;2023-05-21T09:55:02;97013.59;;;18.62;68.26
16461;BME280;8341;42.048;24.650;2023-05-21T09:57:30;97025.09;;;18.66;68.83
16461;BME280;8341;42.048;24.650;2023-05-21T09:59:57;97011.19;;;18.59;69.69
16461;BME280;8341;42.048;24.650;2023-05-21T10:02:24;97016.16;;;18.73;71.10
16461;BME280;8341;42.048;24.650;2023-05-21T10:04:52;97016.06;;;18.79;69.82
16461;BME280;8341;42.048;24.650;2023-05-21T10:07:21;97014.00;;;18.93;67.74
16461;BME280;8341;42.048;24.650;2023-05-21T10:09:52;97024.94;;;19.11;68.42
16461;BME280;8341;42.048;24.650;2023-05-21T10:12:22;97020.13;;;19.25;67.71
16461;BME280;8341;42.048;24.650;2023-05-21T10:14:55;97019.53;;;19.53;66.07
16461;BME280;8341;42.048;24.650;2023-05-21T10:17:24;97010.78;;;19.62;65.69
16461;BME280;8341;42.048;24.650;2023-05-21T10:19:54;97015.31;;;19.72;66.27
16461;BME280;8341;42.048;24.650;2023-05-21T10:22:21;97019.09;;;19.82;67.21
16461;BME280;8341;42.048;24.650;2023-05-21T10:24:49;97017.94;;;19.78;66.76
16461;BME280;8341;42.048;24.650;2023-05-21T10:27:17;97021.47;;;19.78;67.24
16461;BME280;8341;42.048;24.650;2023-05-21T10:29:46;97018.94;;;19.67;65.76
16461;BME280;8341;42.048;24.650;2023-05-21T10:32:15;97028.78;;;19.55;67.56
16461;BME280;8341;42.048;24.650;2023-05-21T10:34:42;97030.00;;;19.33;67.96
16461;BME280;8341;42.048;24.650;2023-05-21T10:37:11;97037.66;;;19.27;69.09
16461;BME280;8341;42.048;24.650;2023-05-21T10:39:38;97029.59;;;19.16;70.13
16461;BME280;8341;42.048;24.650;2023-05-21T10:42:15;97046.16;;;19.29;71.88
16461;BME280;8341;42.048;24.650;2023-05-21T10:44:56;97032.53;;;19.31;73.78
16461;BME280;8341;42.048;24.650;2023-05-21T10:48:01;97043.34;;;19.09;71.13
16461;BME280;8341;42.048;24.650;2023-05-21T10:50:54;97041.13;;;18.94;70.61
16461;BME280;8341;42.048;24.650;2023-05-21T10:53:34;97046.44;;;18.79;73.88
16461;BME280;8341;42.048;24.650;2023-05-21T10:56:13;97044.44;;;18.66;73.87
16461;BME280;8341;42.048;24.650;2023-05-21T10:59:04;97044.63;;;18.55;75.27
16461;BME280;8341;42.048;24.650;2023-05-21T11:01:36;97038.75;;;18.46;76.51
16461;BME280;8341;42.048;24.650;2023-05-21T11:04:04;97041.00;;;18.47;77.28
16461;BME280;8341;42.048;24.650;2023-05-21T11:06:31;97039.47;;;18.46;73.62
16461;BME280;8341;42.048;24.650;2023-05-21T11:09:00;97030.47;;;18.46;76.62
16461;BME280;8341;42.048;24.650;2023-05-21T11:11:41;97036.22;;;18.48;75.57
16461;BME280;8341;42.048;24.650;2023-05-21T11:14:29;97031.78;;;18.58;75.00
16461;BME280;8341;42.048;24.650;2023-05-21T11:16:57;97032.09;;;18.67;75.54
16461;BME280;8341;42.048;24.650;2023-05-21T11:19:39;97017.97;;;18.84;76.91
16461;BME280;8341;42.048;24.650;2023-05-21T11:22:07;97014.56;;;18.91;76.17
16461;BME280;8341;42.048;24.650;2023-05-21T11:24:40;97006.44;;;19.06;75.36
16461;BME280;8341;42.048;24.650;2023-05-21T11:27:06;97007.41;;;19.09;75.52
16461;BME280;8341;42.048;24.650;2023-05-21T11:29:43;97010.53;;;18.92;70.68
16461;BME280;8341;42.048;24.650;2023-05-21T11:32:14;97011.91;;;18.86;77.25
16461;BME280;8341;42.048;24.650;2023-05-21T11:34:43;97014.25;;;18.68;75.56
16461;BME280;8341;42.048;24.650;2023-05-21T11:37:25;97008.53;;;18.80;77.30
16461;BME280;8341;42.048;24.650;2023-05-21T11:39:55;97013.41;;;18.87;74.09
16461;BME280;8341;42.048;24.650;2023-05-21T11:42:27;97012.44;;;18.97;74.51
16461;BME280;8341;42.048;24.650;2023-05-21T11:44:55;96997.66;;;18.42;74.29
16461;BME280;8341;42.048;24.650;2023-05-21T11:47:24;97001.25;;;18.24;73.52
16461;BME280;8341;42.048;24.650;2023-05-21T11:49:53;97001.19;;;18.56;73.13
16461;BME280;8341;42.048;24.650;2023-05-21T11:52:20;96999.91;;;18.70;70.95
16461;BME280;8341;42.048;24.650;2023-05-21T11:54:48;97003.50;;;18.78;74.66
16461;BME280;8341;42.048;24.650;2023-05-21T11:57:18;96990.56;;;18.73;75.10
16461;BME280;8341;42.048;24.650;2023-05-21T11:59:46;96994.38;;;18.83;72.80
16461;BME280;8341;42.048;24.650;2023-05-21T12:02:14;96991.41;;;18.68;76.96
16461;BME280;8341;42.048;24.650;2023-05-21T12:04:42;96988.25;;;18.64;77.26
16461;BME280;8341;42.048;24.650;2023-05-21T12:07:11;96984.38;;;18.67;75.54
16461;BME280;8341;42.048;24.650;2023-05-21T12:09:39;96983.13;;;18.68;78.36
16461;BME280;8341;42.048;24.650;2023-05-21T12:12:07;96975.22;;;18.85;78.04
16461;BME280;8341;42.048;24.650;2023-05-21T12:14:34;96973.50;;;18.95;75.70
16461;BME280;8341;42.048;24.650;2023-05-21T12:17:01;96981.38;;;19.04;72.85
16461;BME280;8341;42.048;24.650;2023-05-21T12:19:31;96970.53;;;19.06;72.39
16461;BME280;8341;42.048;24.650;2023-05-21T12:22:02;96966.38;;;19.13;70.86
16461;BME280;8341;42.048;24.650;2023-05-21T12:24:30;96964.56;;;19.15;73.89
16461;BME280;8341;42.048;24.650;2023-05-21T12:26:58;96962.19;;;19.19;74.97
16461;BME280;8341;42.048;24.650;2023-05-21T12:29:26;96958.59;;;19.11;73.17
16461;BME280;8341;42.048;24.650;2023-05-21T12:31:53;96961.25;;;19.17;71.11
16461;BME280;8341;42.048;24.650;2023-05-21T12:34:39;96958.38;;;19.22;72.97
16461;BME280;8341;42.048;24.650;2023-05-21T12:37:08;96952.94;;;19.17;74.46
16461;BME280;8341;42.048;24.650;2023-05-21T12:39:39;96957.63;;;19.22;72.54
16461;BME280;8341;42.048;24.650;2023-05-21T12:42:07;96955.63;;;19.09;74.23
16461;BME280;8341;42.048;24.650;2023-05-21T12:44:34;96955.72;;;19.17;73.02
16461;BME280;8341;42.048;24.650;2023-05-21T12:47:01;96953.50;;;19.15;72.62
16461;BME280;8341;42.048;24.650;2023-05-21T12:49:33;96950.94;;;19.17;72.99
16461;BME280;8341;42.048;24.650;2023-05-21T12:52:04;96947.41;;;19.17;72.94
16461;BME280;8341;42.048;24.650;2023-05-21T12:54:34;96941.44;;;19.26;73.18
16461;BME280;8341;42.048;24.650;2023-05-21T12:57:09;96944.91;;;19.40;73.85
16461;BME280;8341;42.048;24.650;2023-05-21T12:59:43;96943.38;;;19.52;73.55
16461;BME280;8341;42.048;24.650;2023-05-21T13:02:13;96949.25;;;19.69;73.77
16461;BME280;8341;42.048;24.650;2023-05-21T13:04:41;96951.22;;;19.81;73.73
16461;BME280;8341;42.048;24.650;2023-05-21T13:07:07;96941.00;;;19.97;74.17